sensor_id;sensor_type;location;lat;lon;timestamp;pressure;altitude;pressure_sealevel;temperature
12126;BMP180;6126;57.908;16.490;2022-07-23T00:00:31;101118.56;;;15.85
12126;BMP180;6126;57.908;16.490;2022-07-23T00:02:57;101120.44;;;15.68
12126;BMP180;6126;57.908;16.490;2022-07-23T00:05:23;101126.53;;;15.54
12126;BMP180;6126;57.908;16.490;2022-07-23T00:07:49;101116.66;;;15.42
12126;BMP180;6126;57.908;16.490;2022-07-23T00:10:15;101115.16;;;15.39
12126;BMP180;6126;57.908;16.490;2022-07-23T00:12:41;101114.56;;;15.34
12126;BMP180;6126;57.908;16.490;2022-07-23T00:15:08;101106.25;;;15.26
12126;BMP180;6126;57.908;16.490;2022-07-23T00:17:34;101105.03;;;15.16
12126;BMP180;6126;57.908;16.490;2022-07-23T00:20:01;101101.13;;;15.08
12126;BMP180;6126;57.908;16.490;2022-07-23T00:22:27;101109.44;;;15.00
12126;BMP180;6126;57.908;16.490;2022-07-23T00:24:56;101111.28;;;14.98
12126;BMP180;6126;57.908;16.490;2022-07-23T00:27:22;101114.63;;;15.02
12126;BMP180;6126;57.908;16.490;2022-07-23T00:29:48;101108.22;;;15.06
12126;BMP180;6126;57.908;16.490;2022-07-23T00:32:15;101105.41;;;15.10
12126;BMP180;6126;57.908;16.490;2022-07-23T00:34:41;101101.81;;;15.11
12126;BMP180;6126;57.908;16.490;2022-07-23T00:37:07;101106.34;;;15.09
12126;BMP180;6126;57.908;16.490;2022-07-23T00:39:33;101103.06;;;15.04
12126;BMP180;6126;57.908;16.490;2022-07-23T00:41:59;101102.31;;;15.02
12126;BMP180;6126;57.908;16.490;2022-07-23T00:44:27;101103.25;;;15.01
12126;BMP180;6126;57.908;16.490;2022-07-23T00:46:56;101106.03;;;14.98
12126;BMP180;6126;57.908;16.490;2022-07-23T00:49:26;101102.66;;;14.96
12126;BMP180;6126;57.908;16.490;2022-07-23T00:51:53;101119.34;;;14.95
12126;BMP180;6126;57.908;16.490;2022-07-23T00:54:22;101110.53;;;14.96
12126;BMP180;6126;57.908;16.490;2022-07-23T00:56:48;101122.69;;;14.99
12126;BMP180;6126;57.908;16.490;2022-07-23T00:59:14;101118.94;;;15.03
12126;BMP180;6126;57.908;16.490;2022-07-23T01:01:40;101119.31;;;15.12
12126;BMP180;6126;57.908;16.490;2022-07-23T01:04:07;101122.09;;;15.24
12126;BMP180;6126;57.908;16.490;2022-07-23T01:06:37;101123.06;;;15.39
12126;BMP180;6126;57.908;16.490;2022-07-23T01:09:05;101129.22;;;15.53
12126;BMP180;6126;57.908;16.490;2022-07-23T01:11:37;101130.34;;;15.64
12126;BMP180;6126;57.908;16.490;2022-07-23T01:14:17;101127.94;;;15.75
12126;BMP180;6126;57.908;16.490;2022-07-23T01:16:45;101121.63;;;15.77
12126;BMP180;6126;57.908;16.490;2022-07-23T01:19:13;101126.25;;;15.74
12126;BMP180;6126;57.908;16.490;2022-07-23T01:21:43;101129.97;;;15.70
12126;BMP180;6126;57.908;16.490;2022-07-23T01:24:10;101124.78;;;15.69
12126;BMP180;6126;57.908;16.490;2022-07-23T01:26:38;101121.47;;;15.65
12126;BMP180;6126;57.908;16.490;2022-07-23T01:29:04;101127.69;;;15.64
12126;BMP180;6126;57.908;16.490;2022-07-23T01:31:31;101129.38;;;15.65
12126;BMP180;6126;57.908;16.490;2022-07-23T01:33:57;101127.09;;;15.74
12126;BMP180;6126;57.908;16.490;2022-07-23T01:36:23;101110.91;;;15.80
12126;BMP180;6126;57.908;16.490;2022-07-23T01:38:50;101113.94;;;15.88
12126;BMP180;6126;57.908;16.490;2022-07-23T01:41:16;101112.56;;;15.97
12126;BMP180;6126;57.908;16.490;2022-07-23T01:43:42;101112.22;;;16.03
12126;BMP180;6126;57.908;16.490;2022-07-23T01:46:08;101117.97;;;16.09
12126;BMP180;6126;57.908;16.490;2022-07-23T01:48:34;101106.34;;;16.13
12126;BMP180;6126;57.908;16.490;2022-07-23T01:51:00;101100.78;;;16.17
12126;BMP180;6126;57.908;16.490;2022-07-23T01:53:26;101090.91;;;16.21
12126;BMP180;6126;57.908;16.490;2022-07-23T01:55:52;101090.72;;;16.24
12126;BMP180;6126;57.908;16.490;2022-07-23T01:58:18;101102.13;;;16.24
12126;BMP180;6126;57.908;16.490;2022-07-23T02:00:44;101090.91;;;16.21
12126;BMP180;6126;57.908;16.490;2022-07-23T02:03:09;101094.00;;;16.13
12126;BMP180;6126;57.908;16.490;2022-07-23T02:05:35;101096.03;;;16.08
12126;BMP180;6126;57.908;16.490;2022-07-23T02:08:02;101094.69;;;16.02
12126;BMP180;6126;57.908;16.490;2022-07-23T02:10:28;101084.41;;;15.97
12126;BMP180;6126;57.908;16.490;2022-07-23T02:12:54;101081.22;;;15.92
12126;BMP180;6126;57.908;16.490;2022-07-23T02:15:20;101084.88;;;15.90
12126;BMP180;6126;57.908;16.490;2022-07-23T02:17:45;101093.69;;;15.89
12126;BMP180;6126;57.908;16.490;2022-07-23T02:20:12;101092.03;;;15.88
12126;BMP180;6126;57.908;16.490;2022-07-23T02:22:38;101090.47;;;15.84
12126;BMP180;6126;57.908;16.490;2022-07-23T02:25:06;101091.63;;;15.80
12126;BMP180;6126;57.908;16.490;2022-07-23T02:27:33;101088.97;;;15.80
12126;BMP180;6126;57.908;16.490;2022-07-23T02:29:59;101079.09;;;15.83
12126;BMP180;6126;57.908;16.490;2022-07-23T02:32:25;101082.41;;;15.87
12126;BMP180;6126;57.908;16.490;2022-07-23T02:34:51;101087.22;;;15.94
12126;BMP180;6126;57.908;16.490;2022-07-23T02:37:17;101088.56;;;16.01
12126;BMP180;6126;57.908;16.490;2022-07-23T02:39:44;101087.34;;;16.06
12126;BMP180;6126;57.908;16.490;2022-07-23T02:42:10;101067.78;;;16.10
12126;BMP180;6126;57.908;16.490;2022-07-23T02:44:36;101078.19;;;16.13
12126;BMP180;6126;57.908;16.490;2022-07-23T02:47:02;101069.97;;;16.18
12126;BMP180;6126;57.908;16.490;2022-07-23T02:49:28;101074.97;;;16.22
12126;BMP180;6126;57.908;16.490;2022-07-23T02:51:54;101067.72;;;16.26
12126;BMP180;6126;57.908;16.490;2022-07-23T02:54:20;101064.03;;;16.28
12126;BMP180;6126;57.908;16.490;2022-07-23T02:56:46;101068.22;;;16.32
12126;BMP180;6126;57.908;16.490;2022-07-23T02:59:12;101066.22;;;16.35
12126;BMP180;6126;57.908;16.490;2022-07-23T03:01:38;101053.72;;;16.39
12126;BMP180;6126;57.908;16.490;2022-07-23T03:04:04;101061.44;;;16.42
12126;BMP180;6126;57.908;16.490;2022-07-23T03:06:30;101062.16;;;16.44
12126;BMP180;6126;57.908;16.490;2022-07-23T03:08:55;101055.84;;;16.46
12126;BMP180;6126;57.908;16.490;2022-07-23T03:11:21;101061.06;;;16.48
12126;BMP180;6126;57.908;16.490;2022-07-23T03:13:47;101067.09;;;16.50
12126;BMP180;6126;57.908;16.490;2022-07-23T03:16:13;101052.88;;;16.52
12126;BMP180;6126;57.908;16.490;2022-07-23T03:18:39;101051.91;;;16.53
12126;BMP180;6126;57.908;16.490;2022-07-23T03:21:05;101058.97;;;16.53
12126;BMP180;6126;57.908;16.490;2022-07-23T03:23:31;101052.75;;;16.54
12126;BMP180;6126;57.908;16.490;2022-07-23T03:25:56;101057.00;;;16.56
12126;BMP180;6126;57.908;16.490;2022-07-23T03:28:22;101062.19;;;16.58
12126;BMP180;6126;57.908;16.490;2022-07-23T03:30:48;101053.25;;;16.60
12126;BMP180;6126;57.908;16.490;2022-07-23T03:33:17;101063.59;;;16.63
12126;BMP180;6126;57.908;16.490;2022-07-23T03:35:44;101054.84;;;16.63
12126;BMP180;6126;57.908;16.490;2022-07-23T03:38:10;101055.56;;;16.65
12126;BMP180;6126;57.908;16.490;2022-07-23T03:40:36;101050.22;;;16.66
12126;BMP180;6126;57.908;16.490;2022-07-23T03:43:02;101041.25;;;16.68
12126;BMP180;6126;57.908;16.490;2022-07-23T03:45:28;101032.38;;;16.69
12126;BMP180;6126;57.908;16.490;2022-07-23T03:47:54;101043.59;;;16.73
12126;BMP180;6126;57.908;16.490;2022-07-23T03:50:20;101044.44;;;16.73
12126;BMP180;6126;57.908;16.490;2022-07-23T03:52:46;101039.06;;;16.75
12126;BMP180;6126;57.908;16.490;2022-07-23T03:55:12;101047.66;;;16.78
12126;BMP180;6126;57.908;16.490;2022-07-23T03:57:39;101054.63;;;16.79
12126;BMP180;6126;57.908;16.490;2022-07-23T04:00:07;101055.38;;;16.81
12126;BMP180;6126;57.908;16.490;2022-07-23T04:02:36;101057.06;;;16.82
12126;BMP180;6126;57.908;16.490;2022-07-23T04:05:02;101052.53;;;16.84
12126;BMP180;6126;57.908;16.490;2022-07-23T04:07:28;101052.44;;;16.86
12126;BMP180;6126;57.908;16.490;2022-07-23T04:09:54;101057.63;;;16.87
12126;BMP180;6126;57.908;16.490;2022-07-23T04:12:20;101063.75;;;16.88
12126;BMP180;6126;57.908;16.490;2022-07-23T04:14:46;101069.78;;;16.90
12126;BMP180;6126;57.908;16.490;2022-07-23T04:17:12;101067.97;;;16.90
12126;BMP180;6126;57.908;16.490;2022-07-23T04:19:38;101059.13;;;16.91
12126;BMP180;6126;57.908;16.490;2022-07-23T04:22:12;101067.78;;;16.93
12126;BMP180;6126;57.908;16.490;2022-07-23T04:24:38;101061.66;;;16.93
12126;BMP180;6126;57.908;16.490;2022-07-23T04:27:05;101060.63;;;16.95
12126;BMP180;6126;57.908;16.490;2022-07-23T04:29:31;101069.28;;;16.97
12126;BMP180;6126;57.908;16.490;2022-07-23T04:31:57;101064.00;;;16.97
12126;BMP180;6126;57.908;16.490;2022-07-23T04:34:23;101064.78;;;16.99
12126;BMP180;6126;57.908;16.490;2022-07-23T04:36:49;101080.50;;;17.00
12126;BMP180;6126;57.908;16.490;2022-07-23T04:39:15;101075.13;;;17.02
12126;BMP180;6126;57.908;16.490;2022-07-23T04:41:41;101076.06;;;17.01
12126;BMP180;6126;57.908;16.490;2022-07-23T04:44:07;101073.34;;;17.02
12126;BMP180;6126;57.908;16.490;2022-07-23T04:46:33;101080.31;;;17.03
12126;BMP180;6126;57.908;16.490;2022-07-23T04:48:59;101066.16;;;17.04
12126;BMP180;6126;57.908;16.490;2022-07-23T04:51:25;101073.25;;;17.04
12126;BMP180;6126;57.908;16.490;2022-07-23T04:53:50;101072.22;;;17.06
12126;BMP180;6126;57.908;16.490;2022-07-23T04:56:16;101075.69;;;17.07
12126;BMP180;6126;57.908;16.490;2022-07-23T04:58:42;101073.78;;;17.09
12126;BMP180;6126;57.908;16.490;2022-07-23T05:01:08;101078.13;;;17.10
12126;BMP180;6126;57.908;16.490;2022-07-23T05:03:34;101071.94;;;17.11
12126;BMP180;6126;57.908;16.490;2022-07-23T05:06:00;101068.38;;;17.12
12126;BMP180;6126;57.908;16.490;2022-07-23T05:08:26;101071.72;;;17.14
12126;BMP180;6126;57.908;16.490;2022-07-23T05:10:52;101066.28;;;17.17
12126;BMP180;6126;57.908;16.490;2022-07-23T05:13:18;101068.72;;;17.20
12126;BMP180;6126;57.908;16.490;2022-07-23T05:15:45;101062.19;;;17.25
12126;BMP180;6126;57.908;16.490;2022-07-23T05:18:11;101050.59;;;17.28
12126;BMP180;6126;57.908;16.490;2022-07-23T05:20:38;101062.53;;;17.33
12126;BMP180;6126;57.908;16.490;2022-07-23T05:23:04;101059.56;;;17.37
12126;BMP180;6126;57.908;16.490;2022-07-23T05:25:30;101054.84;;;17.42
12126;BMP180;6126;57.908;16.490;2022-07-23T05:27:56;101059.00;;;17.46
12126;BMP180;6126;57.908;16.490;2022-07-23T05:30:21;101056.06;;;17.51
12126;BMP180;6126;57.908;16.490;2022-07-23T05:32:47;101059.22;;;17.56
12126;BMP180;6126;57.908;16.490;2022-07-23T05:35:13;101058.16;;;17.58
12126;BMP180;6126;57.908;16.490;2022-07-23T05:37:39;101058.00;;;17.61
12126;BMP180;6126;57.908;16.490;2022-07-23T05:40:08;101061.25;;;17.64
12126;BMP180;6126;57.908;16.490;2022-07-23T05:42:38;101053.97;;;17.68
12126;BMP180;6126;57.908;16.490;2022-07-23T05:45:05;101061.59;;;17.72
12126;BMP180;6126;57.908;16.490;2022-07-23T05:47:48;101056.03;;;17.77
12126;BMP180;6126;57.908;16.490;2022-07-23T05:50:15;101051.38;;;17.80
12126;BMP180;6126;57.908;16.490;2022-07-23T05:52:42;101052.94;;;17.83
12126;BMP180;6126;57.908;16.490;2022-07-23T05:55:10;101045.78;;;17.85
12126;BMP180;6126;57.908;16.490;2022-07-23T05:57:38;101041.97;;;17.89
12126;BMP180;6126;57.908;16.490;2022-07-23T06:00:06;101040.69;;;17.94
12126;BMP180;6126;57.908;16.490;2022-07-23T06:02:32;101042.19;;;17.98
12126;BMP180;6126;57.908;16.490;2022-07-23T06:04:58;101043.59;;;18.03
12126;BMP180;6126;57.908;16.490;2022-07-23T06:07:24;101039.69;;;18.09
12126;BMP180;6126;57.908;16.490;2022-07-23T06:09:50;101043.72;;;18.14
12126;BMP180;6126;57.908;16.490;2022-07-23T06:12:18;101039.78;;;18.20
12126;BMP180;6126;57.908;16.490;2022-07-23T06:14:44;101034.19;;;18.24
12126;BMP180;6126;57.908;16.490;2022-07-23T06:17:10;101045.53;;;18.26
12126;BMP180;6126;57.908;16.490;2022-07-23T06:19:36;101040.03;;;18.29
12126;BMP180;6126;57.908;16.490;2022-07-23T06:22:02;101045.84;;;18.34
12126;BMP180;6126;57.908;16.490;2022-07-23T06:24:28;101045.63;;;18.37
12126;BMP180;6126;57.908;16.490;2022-07-23T06:26:54;101043.69;;;18.39
12126;BMP180;6126;57.908;16.490;2022-07-23T06:29:20;101056.00;;;18.40
12126;BMP180;6126;57.908;16.490;2022-07-23T06:31:46;101050.25;;;18.46
12126;BMP180;6126;57.908;16.490;2022-07-23T06:34:11;101051.75;;;18.50
12126;BMP180;6126;57.908;16.490;2022-07-23T06:36:37;101045.19;;;18.55
12126;BMP180;6126;57.908;16.490;2022-07-23T06:39:03;101050.03;;;18.61
12126;BMP180;6126;57.908;16.490;2022-07-23T06:41:29;101056.81;;;18.65
12126;BMP180;6126;57.908;16.490;2022-07-23T06:43:55;101051.69;;;18.74
12126;BMP180;6126;57.908;16.490;2022-07-23T06:46:20;101050.41;;;18.80
12126;BMP180;6126;57.908;16.490;2022-07-23T06:48:47;101047.69;;;18.81
12126;BMP180;6126;57.908;16.490;2022-07-23T06:51:13;101042.59;;;18.78
12126;BMP180;6126;57.908;16.490;2022-07-23T06:53:39;101047.91;;;18.78
12126;BMP180;6126;57.908;16.490;2022-07-23T06:56:05;101040.06;;;18.77
12126;BMP180;6126;57.908;16.490;2022-07-23T06:58:30;101046.19;;;18.77
12126;BMP180;6126;57.908;16.490;2022-07-23T07:00:56;101046.94;;;18.79
12126;BMP180;6126;57.908;16.490;2022-07-23T07:03:22;101044.06;;;18.82
12126;BMP180;6126;57.908;16.490;2022-07-23T07:05:48;101041.72;;;18.90
12126;BMP180;6126;57.908;16.490;2022-07-23T07:08:15;101051.69;;;18.99
12126;BMP180;6126;57.908;16.490;2022-07-23T07:10:41;101052.69;;;19.09
12126;BMP180;6126;57.908;16.490;2022-07-23T07:13:07;101059.88;;;19.19
12126;BMP180;6126;57.908;16.490;2022-07-23T07:15:33;101064.63;;;19.26
12126;BMP180;6126;57.908;16.490;2022-07-23T07:17:59;101066.81;;;19.32
12126;BMP180;6126;57.908;16.490;2022-07-23T07:20:25;101064.66;;;19.37
12126;BMP180;6126;57.908;16.490;2022-07-23T07:22:50;101060.84;;;19.41
12126;BMP180;6126;57.908;16.490;2022-07-23T07:25:16;101060.38;;;19.47
12126;BMP180;6126;57.908;16.490;2022-07-23T07:27:42;101061.88;;;19.51
12126;BMP180;6126;57.908;16.490;2022-07-23T07:30:11;101059.72;;;19.56
12126;BMP180;6126;57.908;16.490;2022-07-23T07:32:37;101057.78;;;19.58
12126;BMP180;6126;57.908;16.490;2022-07-23T07:35:07;101050.81;;;19.57
12126;BMP180;6126;57.908;16.490;2022-07-23T07:37:33;101046.47;;;19.56
12126;BMP180;6126;57.908;16.490;2022-07-23T07:39:59;101041.88;;;19.58
12126;BMP180;6126;57.908;16.490;2022-07-23T07:42:26;101045.03;;;19.63
12126;BMP180;6126;57.908;16.490;2022-07-23T07:44:52;101055.19;;;19.69
12126;BMP180;6126;57.908;16.490;2022-07-23T07:47:18;101061.84;;;19.74
12126;BMP180;6126;57.908;16.490;2022-07-23T07:49:44;101055.97;;;19.81
12126;BMP180;6126;57.908;16.490;2022-07-23T07:52:10;101058.06;;;19.89
12126;BMP180;6126;57.908;16.490;2022-07-23T07:54:37;101067.13;;;19.97
12126;BMP180;6126;57.908;16.490;2022-07-23T07:57:03;101064.03;;;20.03
12126;BMP180;6126;57.908;16.490;2022-07-23T07:59:29;101064.63;;;20.07
12126;BMP180;6126;57.908;16.490;2022-07-23T08:01:55;101061.00;;;20.08
12126;BMP180;6126;57.908;16.490;2022-07-23T08:04:21;101065.22;;;20.10
12126;BMP180;6126;57.908;16.490;2022-07-23T08:06:47;101059.72;;;20.13
12126;BMP180;6126;57.908;16.490;2022-07-23T08:09:12;101065.63;;;20.16
12126;BMP180;6126;57.908;16.490;2022-07-23T08:11:38;101060.06;;;20.19
12126;BMP180;6126;57.908;16.490;2022-07-23T08:14:04;101058.03;;;20.23
12126;BMP180;6126;57.908;16.490;2022-07-23T08:16:30;101057.56;;;20.29
12126;BMP180;6126;57.908;16.490;2022-07-23T08:18:56;101060.56;;;20.35
12126;BMP180;6126;57.908;16.490;2022-07-23T08:21:22;101062.03;;;20.39
12126;BMP180;6126;57.908;16.490;2022-07-23T08:23:48;101064.06;;;20.46
12126;BMP180;6126;57.908;16.490;2022-07-23T08:26:14;101052.66;;;20.57
12126;BMP180;6126;57.908;16.490;2022-07-23T08:28:40;101054.59;;;20.76
12126;BMP180;6126;57.908;16.490;2022-07-23T08:31:06;101049.38;;;20.97
12126;BMP180;6126;57.908;16.490;2022-07-23T08:33:32;101045.00;;;21.17
12126;BMP180;6126;57.908;16.490;2022-07-23T08:35:58;101041.84;;;21.34
12126;BMP180;6126;57.908;16.490;2022-07-23T08:38:25;101047.09;;;21.45
12126;BMP180;6126;57.908;16.490;2022-07-23T08:40:55;101042.00;;;21.53
12126;BMP180;6126;57.908;16.490;2022-07-23T08:43:31;101038.97;;;21.57
12126;BMP180;6126;57.908;16.490;2022-07-23T08:46:00;101043.66;;;21.64
12126;BMP180;6126;57.908;16.490;2022-07-23T08:48:36;101034.91;;;21.73
12126;BMP180;6126;57.908;16.490;2022-07-23T08:51:06;101042.50;;;21.78
12126;BMP180;6126;57.908;16.490;2022-07-23T08:53:33;101043.88;;;21.72
12126;BMP180;6126;57.908;16.490;2022-07-23T08:56:03;101044.88;;;21.61
12126;BMP180;6126;57.908;16.490;2022-07-23T08:58:30;101050.38;;;21.48
12126;BMP180;6126;57.908;16.490;2022-07-23T09:00:58;101046.06;;;21.36
12126;BMP180;6126;57.908;16.490;2022-07-23T09:03:30;101057.19;;;21.20
12126;BMP180;6126;57.908;16.490;2022-07-23T09:05:58;101061.44;;;21.01
12126;BMP180;6126;57.908;16.490;2022-07-23T09:08:35;101063.03;;;20.81
12126;BMP180;6126;57.908;16.490;2022-07-23T09:11:13;101058.09;;;20.66
12126;BMP180;6126;57.908;16.490;2022-07-23T09:13:53;101060.13;;;20.52
12126;BMP180;6126;57.908;16.490;2022-07-23T09:16:28;101071.69;;;20.40
12126;BMP180;6126;57.908;16.490;2022-07-23T09:19:04;101063.56;;;20.31
12126;BMP180;6126;57.908;16.490;2022-07-23T09:21:32;101064.91;;;20.25
12126;BMP180;6126;57.908;16.490;2022-07-23T09:24:13;101071.28;;;20.23
12126;BMP180;6126;57.908;16.490;2022-07-23T09:26:48;101086.63;;;20.19
12126;BMP180;6126;57.908;16.490;2022-07-23T09:29:26;101093.22;;;20.14
12126;BMP180;6126;57.908;16.490;2022-07-23T09:32:02;101100.19;;;20.04
12126;BMP180;6126;57.908;16.490;2022-07-23T09:34:36;101109.28;;;19.89
12126;BMP180;6126;57.908;16.490;2022-07-23T09:37:18;101094.09;;;19.68
12126;BMP180;6126;57.908;16.490;2022-07-23T09:39:47;101100.88;;;19.49
12126;BMP180;6126;57.908;16.490;2022-07-23T09:42:21;101111.16;;;19.30
12126;BMP180;6126;57.908;16.490;2022-07-23T09:44:54;101108.75;;;19.15
12126;BMP180;6126;57.908;16.490;2022-07-23T09:47:23;101108.47;;;19.07
12126;BMP180;6126;57.908;16.490;2022-07-23T09:50:10;101106.34;;;19.00
12126;BMP180;6126;57.908;16.490;2022-07-23T09:52:48;101104.88;;;18.83
12126;BMP180;6126;57.908;16.490;2022-07-23T09:55:17;101104.13;;;18.82
12126;BMP180;6126;57.908;16.490;2022-07-23T09:57:45;101104.03;;;18.71
12126;BMP180;6126;57.908;16.490;2022-07-23T10:00:13;101115.69;;;18.68
12126;BMP180;6126;57.908;16.490;2022-07-23T10:02:40;101111.75;;;18.61
12126;BMP180;6126;57.908;16.490;2022-07-23T10:05:07;101114.31;;;18.63
12126;BMP180;6126;57.908;16.490;2022-07-23T10:07:39;101115.25;;;18.62
12126;BMP180;6126;57.908;16.490;2022-07-23T10:10:06;101106.69;;;18.58
12126;BMP180;6126;57.908;16.490;2022-07-23T10:12:32;101108.06;;;18.64
12126;BMP180;6126;57.908;16.490;2022-07-23T10:15:17;101112.81;;;18.71
12126;BMP180;6126;57.908;16.490;2022-07-23T10:17:43;101121.50;;;18.73
12126;BMP180;6126;57.908;16.490;2022-07-23T10:20:09;101123.50;;;18.70
12126;BMP180;6126;57.908;16.490;2022-07-23T10:22:46;101113.03;;;18.68
12126;BMP180;6126;57.908;16.490;2022-07-23T10:25:48;101126.91;;;18.72
12126;BMP180;6126;57.908;16.490;2022-07-23T10:29:01;101125.22;;;18.71
12126;BMP180;6126;57.908;16.490;2022-07-23T10:32:00;101126.38;;;18.67
12126;BMP180;6126;57.908;16.490;2022-07-23T10:34:40;101124.25;;;18.59
12126;BMP180;6126;57.908;16.490;2022-07-23T10:37:28;101129.22;;;18.52
12126;BMP180;6126;57.908;16.490;2022-07-23T10:40:20;101126.78;;;18.49
12126;BMP180;6126;57.908;16.490;2022-07-23T10:42:50;101129.22;;;18.52
12126;BMP180;6126;57.908;16.490;2022-07-23T10:45:32;101123.41;;;18.59
12126;BMP180;6126;57.908;16.490;2022-07-23T10:48:21;101128.09;;;18.68
12126;BMP180;6126;57.908;16.490;2022-07-23T10:54:01;101121.81;;;18.81
12126;BMP180;6126;57.908;16.490;2022-07-23T10:59:22;101132.81;;;18.87
12126;BMP180;6126;57.908;16.490;2022-07-23T11:01:48;101130.28;;;18.86
12126;BMP180;6126;57.908;16.490;2022-07-23T11:04:15;101122.13;;;18.77
12126;BMP180;6126;57.908;16.490;2022-07-23T11:09:30;101126.06;;;18.71
12126;BMP180;6126;57.908;16.490;2022-07-23T11:15:08;101126.16;;;18.70
12126;BMP180;6126;57.908;16.490;2022-07-23T11:20:24;101136.75;;;18.82
12126;BMP180;6126;57.908;16.490;2022-07-23T11:22:55;101132.72;;;18.89
12126;BMP180;6126;57.908;16.490;2022-07-23T11:27:52;101135.59;;;18.86
12126;BMP180;6126;57.908;16.490;2022-07-23T11:35:44;101137.94;;;18.78
12126;BMP180;6126;57.908;16.490;2022-07-23T11:38:20;101147.66;;;18.78
12126;BMP180;6126;57.908;16.490;2022-07-23T11:40:51;101139.81;;;18.76
12126;BMP180;6126;57.908;16.490;2022-07-23T11:43:18;101145.66;;;18.69
12126;BMP180;6126;57.908;16.490;2022-07-23T11:45:51;101138.75;;;18.66
12126;BMP180;6126;57.908;16.490;2022-07-23T11:50:46;101147.69;;;18.65
12126;BMP180;6126;57.908;16.490;2022-07-23T11:53:13;101141.41;;;18.66
12126;BMP180;6126;57.908;16.490;2022-07-23T11:55:39;101148.38;;;18.67
12126;BMP180;6126;57.908;16.490;2022-07-23T11:58:05;101152.00;;;18.66
12126;BMP180;6126;57.908;16.490;2022-07-23T12:00:32;101152.97;;;18.65
12126;BMP180;6126;57.908;16.490;2022-07-23T12:03:02;101150.31;;;18.65
12126;BMP180;6126;57.908;16.490;2022-07-23T12:05:35;101150.53;;;18.62
12126;BMP180;6126;57.908;16.490;2022-07-23T12:08:07;101149.34;;;18.66
12126;BMP180;6126;57.908;16.490;2022-07-23T12:10:42;101149.56;;;18.63
12126;BMP180;6126;57.908;16.490;2022-07-23T12:13:13;101147.97;;;18.61
12126;BMP180;6126;57.908;16.490;2022-07-23T12:15:47;101151.69;;;18.58
12126;BMP180;6126;57.908;16.490;2022-07-23T12:18:21;101148.28;;;18.56
12126;BMP180;6126;57.908;16.490;2022-07-23T12:20:57;101157.50;;;18.63
12126;BMP180;6126;57.908;16.490;2022-07-23T12:23:26;101154.97;;;18.74
12126;BMP180;6126;57.908;16.490;2022-07-23T12:25:53;101153.16;;;18.87
12126;BMP180;6126;57.908;16.490;2022-07-23T12:28:29;101152.53;;;18.96
12126;BMP180;6126;57.908;16.490;2022-07-23T12:30:57;101146.31;;;18.97
12126;BMP180;6126;57.908;16.490;2022-07-23T12:33:35;101153.19;;;18.99
12126;BMP180;6126;57.908;16.490;2022-07-23T12:36:10;101150.63;;;18.98
12126;BMP180;6126;57.908;16.490;2022-07-23T12:38:49;101153.50;;;18.95
12126;BMP180;6126;57.908;16.490;2022-07-23T12:41:16;101154.69;;;18.91
12126;BMP180;6126;57.908;16.490;2022-07-23T12:43:45;101152.63;;;18.82
12126;BMP180;6126;57.908;16.490;2022-07-23T12:46:17;101149.22;;;18.80
12126;BMP180;6126;57.908;16.490;2022-07-23T12:51:29;101153.69;;;18.80
12126;BMP180;6126;57.908;16.490;2022-07-23T12:54:09;101149.34;;;18.79
12126;BMP180;6126;57.908;16.490;2022-07-23T12:56:38;101154.03;;;18.75
12126;BMP180;6126;57.908;16.490;2022-07-23T12:59:07;101154.97;;;18.74
12126;BMP180;6126;57.908;16.490;2022-07-23T13:04:34;101163.53;;;18.78
12126;BMP180;6126;57.908;16.490;2022-07-23T13:07:00;101165.66;;;18.85
12126;BMP180;6126;57.908;16.490;2022-07-23T13:09:30;101167.25;;;18.87
12126;BMP180;6126;57.908;16.490;2022-07-23T13:11:57;101161.75;;;18.78
12126;BMP180;6126;57.908;16.490;2022-07-23T13:14:25;101156.16;;;18.70
12126;BMP180;6126;57.908;16.490;2022-07-23T13:16:52;101155.50;;;18.67
12126;BMP180;6126;57.908;16.490;2022-07-23T13:19:19;101159.19;;;18.64
12126;BMP180;6126;57.908;16.490;2022-07-23T13:21:48;101172.88;;;18.58
12126;BMP180;6126;57.908;16.490;2022-07-23T13:24:15;101166.09;;;18.54
12126;BMP180;6126;57.908;16.490;2022-07-23T13:26:41;101163.53;;;18.53
12126;BMP180;6126;57.908;16.490;2022-07-23T13:29:07;101167.16;;;18.52
12126;BMP180;6126;57.908;16.490;2022-07-23T13:31:33;101166.72;;;18.46
12126;BMP180;6126;57.908;16.490;2022-07-23T13:34:01;101174.94;;;18.41
12126;BMP180;6126;57.908;16.490;2022-07-23T13:36:26;101180.78;;;18.34
12126;BMP180;6126;57.908;16.490;2022-07-23T13:38:52;101173.03;;;18.31
12126;BMP180;6126;57.908;16.490;2022-07-23T13:41:18;101175.69;;;18.31
12126;BMP180;6126;57.908;16.490;2022-07-23T13:43:44;101178.31;;;18.31
12126;BMP180;6126;57.908;16.490;2022-07-23T13:46:10;101178.13;;;18.34
12126;BMP180;6126;57.908;16.490;2022-07-23T13:48:36;101178.13;;;18.34
12126;BMP180;6126;57.908;16.490;2022-07-23T13:51:02;101178.84;;;18.36
12126;BMP180;6126;57.908;16.490;2022-07-23T13:53:28;101166.38;;;18.38
12126;BMP180;6126;57.908;16.490;2022-07-23T13:55:54;101168.81;;;18.41
12126;BMP180;6126;57.908;16.490;2022-07-23T13:58:21;101170.53;;;18.42
12126;BMP180;6126;57.908;16.490;2022-07-23T14:00:51;101171.25;;;18.44
12126;BMP180;6126;57.908;16.490;2022-07-23T14:03:18;101171.25;;;18.44
12126;BMP180;6126;57.908;16.490;2022-07-23T14:05:44;101176.66;;;18.42
12126;BMP180;6126;57.908;16.490;2022-07-23T14:08:10;101173.28;;;18.40
12126;BMP180;6126;57.908;16.490;2022-07-23T14:10:37;101173.34;;;18.39
12126;BMP180;6126;57.908;16.490;2022-07-23T14:13:03;101170.91;;;18.36
12126;BMP180;6126;57.908;16.490;2022-07-23T14:15:31;101182.47;;;18.35
12126;BMP180;6126;57.908;16.490;2022-07-23T14:17:57;101183.44;;;18.34
12126;BMP180;6126;57.908;16.490;2022-07-23T14:20:23;101179.28;;;18.30
12126;BMP180;6126;57.908;16.490;2022-07-23T14:22:50;101179.28;;;18.30
12126;BMP180;6126;57.908;16.490;2022-07-23T14:25:17;101185.75;;;18.26
12126;BMP180;6126;57.908;16.490;2022-07-23T14:27:43;101187.53;;;18.25
12126;BMP180;6126;57.908;16.490;2022-07-23T14:30:11;101182.34;;;18.24
12126;BMP180;6126;57.908;16.490;2022-07-23T14:32:38;101184.25;;;18.22